sensor_id;sensor_type;location;lat;lon;timestamp;P1;durP1;ratioP1;P2;durP2;ratioP2
4565;SDS011;2295;51.050;14.608;2022-11-20T00:01:40;44.58;;;15.02;;
4565;SDS011;2295;51.050;14.608;2022-11-20T00:04:10;43.33;;;15.98;;
4565;SDS011;2295;51.050;14.608;2022-11-20T00:06:39;34.40;;;14.40;;
4565;SDS011;2295;51.050;14.608;2022-11-20T00:09:10;42.75;;;16.45;;
4565;SDS011;2295;51.050;14.608;2022-11-20T00:11:39;44.15;;;16.20;;
4565;SDS011;2295;51.050;14.608;2022-11-20T00:14:14;44.17;;;17.27;;
4565;SDS011;2295;51.050;14.608;2022-11-20T00:16:43;41.75;;;16.52;;
4565;SDS011;2295;51.050;14.608;2022-11-20T00:19:11;40.97;;;16.67;;
4565;SDS011;2295;51.050;14.608;2022-11-20T00:21:40;46.40;;;15.57;;
4565;SDS011;2295;51.050;14.608;2022-11-20T00:24:18;38.05;;;15.70;;
4565;SDS011;2295;51.050;14.608;2022-11-20T00:26:47;39.40;;;15.05;;
4565;SDS011;2295;51.050;14.608;2022-11-20T00:29:16;39.08;;;14.50;;
4565;SDS011;2295;51.050;14.608;2022-11-20T00:31:45;42.70;;;16.00;;
4565;SDS011;2295;51.050;14.608;2022-11-20T00:34:14;41.38;;;16.67;;
4565;SDS011;2295;51.050;14.608;2022-11-20T00:36:43;39.28;;;15.00;;
4565;SDS011;2295;51.050;14.608;2022-11-20T00:39:21;43.15;;;16.50;;
4565;SDS011;2295;51.050;14.608;2022-11-20T00:41:51;37.97;;;14.82;;
4565;SDS011;2295;51.050;14.608;2022-11-20T00:44:20;46.92;;;15.10;;
4565;SDS011;2295;51.050;14.608;2022-11-20T00:46:49;37.70;;;15.50;;
4565;SDS011;2295;51.050;14.608;2022-11-20T00:49:21;37.63;;;14.20;;
4565;SDS011;2295;51.050;14.608;2022-11-20T00:51:49;39.08;;;14.63;;
4565;SDS011;2295;51.050;14.608;2022-11-20T00:54:18;39.75;;;15.00;;
4565;SDS011;2295;51.050;14.608;2022-11-20T00:56:48;35.53;;;12.80;;
4565;SDS011;2295;51.050;14.608;2022-11-20T00:59:20;42.13;;;15.32;;
4565;SDS011;2295;51.050;14.608;2022-11-20T01:01:50;44.60;;;15.10;;
4565;SDS011;2295;51.050;14.608;2022-11-20T01:04:18;34.80;;;13.70;;
4565;SDS011;2295;51.050;14.608;2022-11-20T01:06:47;41.05;;;15.57;;
4565;SDS011;2295;51.050;14.608;2022-11-20T01:09:16;39.17;;;15.35;;
4565;SDS011;2295;51.050;14.608;2022-11-20T01:11:46;37.83;;;14.23;;
4565;SDS011;2295;51.050;14.608;2022-11-20T01:14:24;37.72;;;14.75;;
4565;SDS011;2295;51.050;14.608;2022-11-20T01:16:53;37.53;;;13.65;;
4565;SDS011;2295;51.050;14.608;2022-11-20T01:19:25;40.17;;;14.77;;
4565;SDS011;2295;51.050;14.608;2022-11-20T01:21:54;31.65;;;12.75;;
4565;SDS011;2295;51.050;14.608;2022-11-20T01:24:23;49.58;;;16.23;;
4565;SDS011;2295;51.050;14.608;2022-11-20T01:26:52;37.25;;;13.82;;
4565;SDS011;2295;51.050;14.608;2022-11-20T01:29:21;38.08;;;15.23;;
4565;SDS011;2295;51.050;14.608;2022-11-20T01:31:52;51.13;;;15.07;;
4565;SDS011;2295;51.050;14.608;2022-11-20T01:34:24;39.03;;;13.95;;
4565;SDS011;2295;51.050;14.608;2022-11-20T01:36:53;39.85;;;14.27;;
4565;SDS011;2295;51.050;14.608;2022-11-20T01:39:22;42.85;;;14.90;;
4565;SDS011;2295;51.050;14.608;2022-11-20T01:41:56;40.47;;;13.65;;
4565;SDS011;2295;51.050;14.608;2022-11-20T01:44:50;36.97;;;14.23;;
4565;SDS011;2295;51.050;14.608;2022-11-20T01:47:29;27.88;;;12.20;;
4565;SDS011;2295;51.050;14.608;2022-11-20T01:50:06;38.83;;;14.50;;
4565;SDS011;2295;51.050;14.608;2022-11-20T01:52:40;34.72;;;13.60;;
4565;SDS011;2295;51.050;14.608;2022-11-20T01:55:15;43.67;;;13.82;;
4565;SDS011;2295;51.050;14.608;2022-11-20T01:57:47;42.78;;;14.82;;
4565;SDS011;2295;51.050;14.608;2022-11-20T02:00:17;41.35;;;13.60;;
4565;SDS011;2295;51.050;14.608;2022-11-20T02:03:00;35.97;;;12.38;;
4565;SDS011;2295;51.050;14.608;2022-11-20T02:05:32;36.15;;;14.95;;
4565;SDS011;2295;51.050;14.608;2022-11-20T02:08:05;43.33;;;15.30;;
4565;SDS011;2295;51.050;14.608;2022-11-20T02:10:34;38.67;;;13.40;;
4565;SDS011;2295;51.050;14.608;2022-11-20T02:13:06;40.70;;;14.43;;
4565;SDS011;2295;51.050;14.608;2022-11-20T02:15:59;38.15;;;13.90;;
4565;SDS011;2295;51.050;14.608;2022-11-20T02:18:52;36.85;;;14.25;;
4565;SDS011;2295;51.050;14.608;2022-11-20T02:21:45;38.05;;;13.18;;
4565;SDS011;2295;51.050;14.608;2022-11-20T02:24:29;42.80;;;14.32;;
4565;SDS011;2295;51.050;14.608;2022-11-20T02:27:19;37.00;;;12.70;;
4565;SDS011;2295;51.050;14.608;2022-11-20T02:29:52;35.67;;;13.90;;
4565;SDS011;2295;51.050;14.608;2022-11-20T02:32:25;35.05;;;13.23;;
4565;SDS011;2295;51.050;14.608;2022-11-20T02:34:56;30.58;;;12.45;;
4565;SDS011;2295;51.050;14.608;2022-11-20T02:37:26;37.38;;;13.13;;
4565;SDS011;2295;51.050;14.608;2022-11-20T02:40:05;35.72;;;13.30;;
4565;SDS011;2295;51.050;14.608;2022-11-20T02:42:52;35.03;;;12.80;;
4565;SDS011;2295;51.050;14.608;2022-11-20T02:45:22;34.65;;;13.90;;
4565;SDS011;2295;51.050;14.608;2022-11-20T02:47:54;33.15;;;13.50;;
4565;SDS011;2295;51.050;14.608;2022-11-20T02:50:25;35.28;;;13.68;;
4565;SDS011;2295;51.050;14.608;2022-11-20T02:52:54;35.15;;;13.52;;
4565;SDS011;2295;51.050;14.608;2022-11-20T02:55:25;34.47;;;13.05;;
4565;SDS011;2295;51.050;14.608;2022-11-20T02:57:56;39.45;;;14.00;;
4565;SDS011;2295;51.050;14.608;2022-11-20T03:00:28;36.47;;;13.32;;
4565;SDS011;2295;51.050;14.608;2022-11-20T03:02:57;32.55;;;13.23;;
4565;SDS011;2295;51.050;14.608;2022-11-20T03:05:25;39.90;;;13.70;;
4565;SDS011;2295;51.050;14.608;2022-11-20T03:07:54;32.90;;;12.48;;
4565;SDS011;2295;51.050;14.608;2022-11-20T03:10:27;30.23;;;11.63;;
4565;SDS011;2295;51.050;14.608;2022-11-20T03:13:02;31.25;;;12.15;;
4565;SDS011;2295;51.050;14.608;2022-11-20T03:15:32;31.45;;;12.23;;
4565;SDS011;2295;51.050;14.608;2022-11-20T03:18:06;28.50;;;11.43;;
4565;SDS011;2295;51.050;14.608;2022-11-20T03:20:39;32.70;;;12.85;;
4565;SDS011;2295;51.050;14.608;2022-11-20T03:23:10;30.10;;;11.38;;
4565;SDS011;2295;51.050;14.608;2022-11-20T03:25:41;33.28;;;13.75;;
4565;SDS011;2295;51.050;14.608;2022-11-20T03:28:10;36.92;;;12.82;;
4565;SDS011;2295;51.050;14.608;2022-11-20T03:30:41;36.47;;;13.75;;
4565;SDS011;2295;51.050;14.608;2022-11-20T03:33:10;30.80;;;13.05;;
4565;SDS011;2295;51.050;14.608;2022-11-20T03:35:47;39.80;;;13.18;;
4565;SDS011;2295;51.050;14.608;2022-11-20T03:38:36;35.17;;;12.23;;
4565;SDS011;2295;51.050;14.608;2022-11-20T03:41:49;33.65;;;12.98;;
4565;SDS011;2295;51.050;14.608;2022-11-20T03:44:38;35.63;;;12.65;;
4565;SDS011;2295;51.050;14.608;2022-11-20T03:47:19;31.95;;;12.43;;
4565;SDS011;2295;51.050;14.608;2022-11-20T03:50:00;32.67;;;13.32;;
4565;SDS011;2295;51.050;14.608;2022-11-20T03:53:01;26.95;;;10.32;;
4565;SDS011;2295;51.050;14.608;2022-11-20T03:55:44;32.75;;;10.88;;
4565;SDS011;2295;51.050;14.608;2022-11-20T03:58:23;31.15;;;10.55;;
4565;SDS011;2295;51.050;14.608;2022-11-20T04:01:22;35.30;;;11.57;;
4565;SDS011;2295;51.050;14.608;2022-11-20T04:04:28;27.30;;;10.77;;
4565;SDS011;2295;51.050;14.608;2022-11-20T04:06:57;32.28;;;11.38;;
4565;SDS011;2295;51.050;14.608;2022-11-20T04:09:31;31.98;;;12.55;;
4565;SDS011;2295;51.050;14.608;2022-11-20T04:12:14;26.52;;;10.73;;
4565;SDS011;2295;51.050;14.608;2022-11-20T04:14:51;28.67;;;11.77;;
4565;SDS011;2295;51.050;14.608;2022-11-20T04:17:58;32.22;;;12.70;;
4565;SDS011;2295;51.050;14.608;2022-11-20T04:20:30;33.08;;;11.98;;
4565;SDS011;2295;51.050;14.608;2022-11-20T04:23:12;27.63;;;11.68;;
4565;SDS011;2295;51.050;14.608;2022-11-20T04:26:00;32.67;;;12.93;;
4565;SDS011;2295;51.050;14.608;2022-11-20T04:29:01;33.45;;;12.40;;
4565;SDS011;2295;51.050;14.608;2022-11-20T04:32:00;33.25;;;13.15;;
4565;SDS011;2295;51.050;14.608;2022-11-20T04:34:37;34.22;;;12.68;;
4565;SDS011;2295;51.050;14.608;2022-11-20T04:37:17;33.08;;;13.02;;
4565;SDS011;2295;51.050;14.608;2022-11-20T04:39:51;34.03;;;13.40;;
4565;SDS011;2295;51.050;14.608;2022-11-20T04:42:20;34.20;;;11.93;;
4565;SDS011;2295;51.050;14.608;2022-11-20T04:44:58;37.00;;;13.40;;
4565;SDS011;2295;51.050;14.608;2022-11-20T04:47:28;31.95;;;12.32;;
4565;SDS011;2295;51.050;14.608;2022-11-20T04:49:57;34.50;;;12.60;;
4565;SDS011;2295;51.050;14.608;2022-11-20T04:52:44;39.33;;;13.30;;
4565;SDS011;2295;51.050;14.608;2022-11-20T04:55:13;39.28;;;14.13;;
4565;SDS011;2295;51.050;14.608;2022-11-20T04:57:49;33.20;;;12.35;;
4565;SDS011;2295;51.050;14.608;2022-11-20T05:00:18;35.42;;;13.75;;
4565;SDS011;2295;51.050;14.608;2022-11-20T05:02:48;30.65;;;12.85;;
4565;SDS011;2295;51.050;14.608;2022-11-20T05:05:18;32.53;;;13.40;;
4565;SDS011;2295;51.050;14.608;2022-11-20T05:07:52;37.92;;;13.10;;
4565;SDS011;2295;51.050;14.608;2022-11-20T05:10:20;35.03;;;13.65;;
4565;SDS011;2295;51.050;14.608;2022-11-20T05:12:52;37.00;;;13.07;;
4565;SDS011;2295;51.050;14.608;2022-11-20T05:15:21;33.45;;;13.40;;
4565;SDS011;2295;51.050;14.608;2022-11-20T05:17:51;33.22;;;12.70;;
4565;SDS011;2295;51.050;14.608;2022-11-20T05:20:24;33.95;;;13.10;;
4565;SDS011;2295;51.050;14.608;2022-11-20T05:22:56;32.35;;;11.55;;
4565;SDS011;2295;51.050;14.608;2022-11-20T05:25:25;29.10;;;12.68;;
4565;SDS011;2295;51.050;14.608;2022-11-20T05:27:53;28.42;;;12.30;;
4565;SDS011;2295;51.050;14.608;2022-11-20T05:30:27;35.33;;;12.77;;
4565;SDS011;2295;51.050;14.608;2022-11-20T05:33:15;31.30;;;12.57;;
4565;SDS011;2295;51.050;14.608;2022-11-20T05:36:14;31.40;;;10.88;;
4565;SDS011;2295;51.050;14.608;2022-11-20T05:39:11;33.13;;;12.95;;
4565;SDS011;2295;51.050;14.608;2022-11-20T05:42:06;34.78;;;12.85;;
4565;SDS011;2295;51.050;14.608;2022-11-20T05:44:52;34.05;;;12.60;;
4565;SDS011;2295;51.050;14.608;2022-11-20T05:47:20;36.78;;;13.13;;
4565;SDS011;2295;51.050;14.608;2022-11-20T05:49:50;30.48;;;12.40;;
4565;SDS011;2295;51.050;14.608;2022-11-20T05:52:20;34.20;;;12.90;;
4565;SDS011;2295;51.050;14.608;2022-11-20T05:54:49;31.40;;;12.75;;
4565;SDS011;2295;51.050;14.608;2022-11-20T05:57:18;27.73;;;12.23;;
4565;SDS011;2295;51.050;14.608;2022-11-20T05:59:49;31.70;;;13.30;;
4565;SDS011;2295;51.050;14.608;2022-11-20T06:02:18;34.85;;;12.90;;
4565;SDS011;2295;51.050;14.608;2022-11-20T06:04:51;38.83;;;15.35;;
4565;SDS011;2295;51.050;14.608;2022-11-20T06:07:26;28.65;;;11.98;;
4565;SDS011;2295;51.050;14.608;2022-11-20T06:09:54;31.48;;;13.00;;
4565;SDS011;2295;51.050;14.608;2022-11-20T06:12:23;32.47;;;12.93;;
4565;SDS011;2295;51.050;14.608;2022-11-20T06:14:53;34.55;;;13.75;;
4565;SDS011;2295;51.050;14.608;2022-11-20T06:17:25;40.00;;;14.10;;
4565;SDS011;2295;51.050;14.608;2022-11-20T06:19:57;34.83;;;14.60;;
4565;SDS011;2295;51.050;14.608;2022-11-20T06:22:29;33.55;;;13.23;;
4565;SDS011;2295;51.050;14.608;2022-11-20T06:25:17;34.05;;;14.35;;
4565;SDS011;2295;51.050;14.608;2022-11-20T06:28:03;42.42;;;15.63;;
4565;SDS011;2295;51.050;14.608;2022-11-20T06:30:32;30.13;;;13.55;;
4565;SDS011;2295;51.050;14.608;2022-11-20T06:33:03;35.90;;;14.43;;
4565;SDS011;2295;51.050;14.608;2022-11-20T06:35:34;35.60;;;14.57;;
4565;SDS011;2295;51.050;14.608;2022-11-20T06:38:06;30.08;;;12.30;;
4565;SDS011;2295;51.050;14.608;2022-11-20T06:40:42;32.13;;;13.25;;
4565;SDS011;2295;51.050;14.608;2022-11-20T06:43:15;32.50;;;12.90;;
4565;SDS011;2295;51.050;14.608;2022-11-20T06:45:44;34.38;;;12.45;;
4565;SDS011;2295;51.050;14.608;2022-11-20T06:48:16;30.10;;;10.75;;
4565;SDS011;2295;51.050;14.608;2022-11-20T06:50:50;32.15;;;12.32;;
4565;SDS011;2295;51.050;14.608;2022-11-20T06:53:40;30.02;;;12.13;;
4565;SDS011;2295;51.050;14.608;2022-11-20T06:56:09;32.78;;;11.98;;
4565;SDS011;2295;51.050;14.608;2022-11-20T06:58:37;41.83;;;15.10;;
4565;SDS011;2295;51.050;14.608;2022-11-20T07:01:07;36.00;;;13.75;;
4565;SDS011;2295;51.050;14.608;2022-11-20T07:03:38;31.38;;;12.43;;
4565;SDS011;2295;51.050;14.608;2022-11-20T07:06:09;29.45;;;12.88;;
4565;SDS011;2295;51.050;14.608;2022-11-20T07:08:38;27.65;;;11.98;;
4565;SDS011;2295;51.050;14.608;2022-11-20T07:11:11;34.42;;;12.93;;
4565;SDS011;2295;51.050;14.608;2022-11-20T07:13:40;35.63;;;12.98;;
4565;SDS011;2295;51.050;14.608;2022-11-20T07:16:12;37.00;;;13.85;;
4565;SDS011;2295;51.050;14.608;2022-11-20T07:18:49;37.50;;;13.10;;
4565;SDS011;2295;51.050;14.608;2022-11-20T07:21:19;31.65;;;13.38;;
4565;SDS011;2295;51.050;14.608;2022-11-20T07:23:50;39.15;;;15.13;;
4565;SDS011;2295;51.050;14.608;2022-11-20T07:26:19;34.83;;;14.07;;
4565;SDS011;2295;51.050;14.608;2022-11-20T07:28:50;40.70;;;16.80;;
4565;SDS011;2295;51.050;14.608;2022-11-20T07:31:25;41.97;;;16.58;;
4565;SDS011;2295;51.050;14.608;2022-11-20T07:33:56;42.47;;;16.65;;
4565;SDS011;2295;51.050;14.608;2022-11-20T07:36:31;42.95;;;16.35;;
4565;SDS011;2295;51.050;14.608;2022-11-20T07:39:00;43.78;;;15.82;;
4565;SDS011;2295;51.050;14.608;2022-11-20T07:41:29;40.75;;;16.70;;
4565;SDS011;2295;51.050;14.608;2022-11-20T07:43:57;37.28;;;15.15;;
4565;SDS011;2295;51.050;14.608;2022-11-20T07:46:53;41.17;;;16.52;;
4565;SDS011;2295;51.050;14.608;2022-11-20T07:49:58;38.60;;;15.63;;
4565;SDS011;2295;51.050;14.608;2022-11-20T07:52:34;45.97;;;15.80;;
4565;SDS011;2295;51.050;14.608;2022-11-20T07:55:03;39.05;;;16.90;;
4565;SDS011;2295;51.050;14.608;2022-11-20T07:57:33;33.03;;;14.50;;
4565;SDS011;2295;51.050;14.608;2022-11-20T08:00:09;33.83;;;13.45;;
4565;SDS011;2295;51.050;14.608;2022-11-20T08:02:44;30.73;;;12.65;;
4565;SDS011;2295;51.050;14.608;2022-11-20T08:05:52;31.27;;;12.10;;
4565;SDS011;2295;51.050;14.608;2022-11-20T08:08:47;31.45;;;12.40;;
4565;SDS011;2295;51.050;14.608;2022-11-20T08:11:19;33.20;;;11.55;;
4565;SDS011;2295;51.050;14.608;2022-11-20T08:14:14;32.40;;;12.50;;
4565;SDS011;2295;51.050;14.608;2022-11-20T08:16:55;28.40;;;11.75;;
4565;SDS011;2295;51.050;14.608;2022-11-20T08:19:29;28.77;;;11.65;;
4565;SDS011;2295;51.050;14.608;2022-11-20T08:21:58;33.00;;;13.35;;
4565;SDS011;2295;51.050;14.608;2022-11-20T08:24:31;25.80;;;10.63;;
4565;SDS011;2295;51.050;14.608;2022-11-20T08:27:05;31.25;;;13.68;;
4565;SDS011;2295;51.050;14.608;2022-11-20T08:29:44;26.90;;;12.23;;
4565;SDS011;2295;51.050;14.608;2022-11-20T08:32:17;31.90;;;12.95;;
4565;SDS011;2295;51.050;14.608;2022-11-20T08:34:56;27.60;;;11.48;;
4565;SDS011;2295;51.050;14.608;2022-11-20T08:37:26;26.10;;;11.30;;
4565;SDS011;2295;51.050;14.608;2022-11-20T08:39:58;29.40;;;12.52;;
4565;SDS011;2295;51.050;14.608;2022-11-20T08:42:27;27.27;;;11.43;;
4565;SDS011;2295;51.050;14.608;2022-11-20T08:44:58;25.35;;;11.30;;
4565;SDS011;2295;51.050;14.608;2022-11-20T08:47:38;26.70;;;11.95;;
4565;SDS011;2295;51.050;14.608;2022-11-20T08:50:09;25.48;;;11.63;;
4565;SDS011;2295;51.050;14.608;2022-11-20T08:52:43;28.58;;;11.82;;
4565;SDS011;2295;51.050;14.608;2022-11-20T08:55:13;22.67;;;9.77;;
4565;SDS011;2295;51.050;14.608;2022-11-20T08:57:51;22.10;;;10.90;;
4565;SDS011;2295;51.050;14.608;2022-11-20T09:00:22;19.60;;;9.35;;
4565;SDS011;2295;51.050;14.608;2022-11-20T09:02:54;22.02;;;10.07;;
4565;SDS011;2295;51.050;14.608;2022-11-20T09:05:22;19.90;;;9.18;;
4565;SDS011;2295;51.050;14.608;2022-11-20T09:07:51;22.23;;;9.80;;
4565;SDS011;2295;51.050;14.608;2022-11-20T09:10:22;21.13;;;9.23;;
4565;SDS011;2295;51.050;14.608;2022-11-20T09:12:57;18.92;;;8.95;;
4565;SDS011;2295;51.050;14.608;2022-11-20T09:15:26;20.63;;;9.32;;
4565;SDS011;2295;51.050;14.608;2022-11-20T09:17:56;23.23;;;9.82;;
4565;SDS011;2295;51.050;14.608;2022-11-20T09:20:26;20.77;;;10.00;;
4565;SDS011;2295;51.050;14.608;2022-11-20T09:22:59;22.75;;;10.25;;
4565;SDS011;2295;51.050;14.608;2022-11-20T09:25:29;23.83;;;10.43;;
4565;SDS011;2295;51.050;14.608;2022-11-20T09:27:58;25.27;;;9.80;;
4565;SDS011;2295;51.050;14.608;2022-11-20T09:30:42;23.67;;;10.25;;
4565;SDS011;2295;51.050;14.608;2022-11-20T09:33:14;21.95;;;9.90;;
4565;SDS011;2295;51.050;14.608;2022-11-20T09:35:43;24.67;;;10.48;;
4565;SDS011;2295;51.050;14.608;2022-11-20T09:38:29;27.33;;;11.18;;
4565;SDS011;2295;51.050;14.608;2022-11-20T09:41:01;21.20;;;9.63;;
4565;SDS011;2295;51.050;14.608;2022-11-20T09:43:37;25.15;;;10.57;;
4565;SDS011;2295;51.050;14.608;2022-11-20T09:46:19;18.17;;;8.98;;
4565;SDS011;2295;51.050;14.608;2022-11-20T09:48:57;22.08;;;9.60;;
4565;SDS011;2295;51.050;14.608;2022-11-20T09:51:43;19.85;;;8.88;;
4565;SDS011;2295;51.050;14.608;2022-11-20T09:54:21;24.42;;;11.70;;
4565;SDS011;2295;51.050;14.608;2022-11-20T09:56:58;30.02;;;12.18;;
4565;SDS011;2295;51.050;14.608;2022-11-20T09:59:32;30.02;;;11.23;;
4565;SDS011;2295;51.050;14.608;2022-11-20T10:02:08;28.20;;;11.30;;
4565;SDS011;2295;51.050;14.608;2022-11-20T10:04:45;26.27;;;11.20;;
4565;SDS011;2295;51.050;14.608;2022-11-20T10:07:17;26.45;;;11.68;;
4565;SDS011;2295;51.050;14.608;2022-11-20T10:09:59;26.70;;;10.50;;
4565;SDS011;2295;51.050;14.608;2022-11-20T10:12:34;27.65;;;11.93;;
4565;SDS011;2295;51.050;14.608;2022-11-20T10:15:22;30.02;;;11.85;;
4565;SDS011;2295;51.050;14.608;2022-11-20T10:18:11;29.17;;;10.50;;
4565;SDS011;2295;51.050;14.608;2022-11-20T10:20:58;24.30;;;10.98;;
4565;SDS011;2295;51.050;14.608;2022-11-20T10:23:45;27.95;;;11.60;;
4565;SDS011;2295;51.050;14.608;2022-11-20T10:26:34;29.65;;;12.10;;
4565;SDS011;2295;51.050;14.608;2022-11-20T10:29:29;27.60;;;11.60;;
4565;SDS011;2295;51.050;14.608;2022-11-20T10:32:01;30.15;;;11.85;;
4565;SDS011;2295;51.050;14.608;2022-11-20T10:34:33;30.42;;;12.43;;
4565;SDS011;2295;51.050;14.608;2022-11-20T10:37:09;31.83;;;12.60;;
4565;SDS011;2295;51.050;14.608;2022-11-20T10:39:42;31.98;;;11.93;;
4565;SDS011;2295;51.050;14.608;2022-11-20T10:42:22;26.23;;;11.68;;
4565;SDS011;2295;51.050;14.608;2022-11-20T10:45:09;32.05;;;12.80;;
4565;SDS011;2295;51.050;14.608;2022-11-20T10:47:52;35.78;;;14.60;;
4565;SDS011;2295;51.050;14.608;2022-11-20T10:50:24;29.42;;;12.75;;
4565;SDS011;2295;51.050;14.608;2022-11-20T10:52:55;27.02;;;12.77;;
4565;SDS011;2295;51.050;14.608;2022-11-20T10:55:33;29.70;;;12.88;;
4565;SDS011;2295;51.050;14.608;2022-11-20T10:58:20;32.35;;;13.80;;
4565;SDS011;2295;51.050;14.608;2022-11-20T11:01:05;28.38;;;12.82;;
4565;SDS011;2295;51.050;14.608;2022-11-20T11:03:41;33.10;;;13.95;;
4565;SDS011;2295;51.050;14.608;2022-11-20T11:06:12;31.15;;;14.02;;
4565;SDS011;2295;51.050;14.608;2022-11-20T11:08:53;35.65;;;12.88;;
4565;SDS011;2295;51.050;14.608;2022-11-20T11:11:25;34.08;;;13.73;;
4565;SDS011;2295;51.050;14.608;2022-11-20T11:14:04;31.65;;;12.77;;
4565;SDS011;2295;51.050;14.608;2022-11-20T11:16:40;34.72;;;14.55;;
4565;SDS011;2295;51.050;14.608;2022-11-20T11:19:18;33.22;;;15.35;;
4565;SDS011;2295;51.050;14.608;2022-11-20T11:21:48;35.13;;;15.40;;
4565;SDS011;2295;51.050;14.608;2022-11-20T11:24:34;33.65;;;14.32;;
4565;SDS011;2295;51.050;14.608;2022-11-20T11:27:10;36.15;;;14.52;;
4565;SDS011;2295;51.050;14.608;2022-11-20T11:29:43;35.90;;;14.82;;
4565;SDS011;2295;51.050;14.608;2022-11-20T11:32:17;42.20;;;14.85;;
4565;SDS011;2295;51.050;14.608;2022-11-20T11:34:58;38.58;;;14.23;;
4565;SDS011;2295;51.050;14.608;2022-11-20T11:38:04;31.92;;;13.35;;
4565;SDS011;2295;51.050;14.608;2022-11-20T11:40:40;31.42;;;14.15;;
4565;SDS011;2295;51.050;14.608;2022-11-20T11:43:18;30.50;;;13.90;;
4565;SDS011;2295;51.050;14.608;2022-11-20T11:46:35;34.97;;;14.32;;
4565;SDS011;2295;51.050;14.608;2022-11-20T11:49:32;35.80;;;14.13;;
4565;SDS011;2295;51.050;14.608;2022-11-20T11:52:10;36.92;;;15.45;;
4565;SDS011;2295;51.050;14.608;2022-11-20T11:54:50;37.30;;;14.90;;
4565;SDS011;2295;51.050;14.608;2022-11-20T11:57:23;29.30;;;13.63;;
4565;SDS011;2295;51.050;14.608;2022-11-20T12:00:02;26.23;;;12.55;;
4565;SDS011;2295;51.050;14.608;2022-11-20T12:02:34;34.60;;;12.98;;
4565;SDS011;2295;51.050;14.608;2022-11-20T12:05:30;30.30;;;12.10;;
4565;SDS011;2295;51.050;14.608;2022-11-20T12:08:10;28.33;;;12.85;;
4565;SDS011;2295;51.050;14.608;2022-11-20T12:10:53;33.50;;;14.35;;
4565;SDS011;2295;51.050;14.608;2022-11-20T12:13:40;31.77;;;12.50;;
4565;SDS011;2295;51.050;14.608;2022-11-20T12:16:26;27.52;;;11.82;;
4565;SDS011;2295;51.050;14.608;2022-11-20T12:18:55;35.78;;;13.13;;
4565;SDS011;2295;51.050;14.608;2022-11-20T12:21:31;29.13;;;12.20;;
4565;SDS011;2295;51.050;14.608;2022-11-20T12:24:44;30.20;;;12.95;;
4565;SDS011;2295;51.050;14.608;2022-11-20T12:30:48;29.33;;;11.85;;
4565;SDS011;2295;51.050;14.608;2022-11-20T12:33:33;28.73;;;12.18;;
4565;SDS011;2295;51.050;14.608;2022-11-20T12:36:21;25.30;;;11.15;;
4565;SDS011;2295;51.050;14.608;2022-11-20T12:39:07;29.77;;;11.30;;
4565;SDS011;2295;51.050;14.608;2022-11-20T12:42:02;31.80;;;12.07;;
4565;SDS011;2295;51.050;14.608;2022-11-20T12:45:10;27.98;;;14.90;;
4565;SDS011;2295;51.050;14.608;2022-11-20T12:47:51;20.95;;;11.95;;
4565;SDS011;2295;51.050;14.608;2022-11-20T12:50:33;23.40;;;11.30;;
4565;SDS011;2295;51.050;14.608;2022-11-20T12:53:33;38.40;;;19.65;;
4565;SDS011;2295;51.050;14.608;2022-11-20T12:56:11;37.50;;;20.65;;
4565;SDS011;2295;51.050;14.608;2022-11-20T12:58:51;31.65;;;11.40;;
4565;SDS011;2295;51.050;14.608;2022-11-20T13:01:36;31.40;;;13.73;;
4565;SDS011;2295;51.050;14.608;2022-11-20T13:04:16;32.58;;;16.73;;
4565;SDS011;2295;51.050;14.608;2022-11-20T13:06:57;36.33;;;17.20;;
4565;SDS011;2295;51.050;14.608;2022-11-20T13:09:28;31.55;;;13.73;;
4565;SDS011;2295;51.050;14.608;2022-11-20T13:12:02;27.25;;;12.10;;
4565;SDS011;2295;51.050;14.608;2022-11-20T13:14:34;31.80;;;13.32;;
4565;SDS011;2295;51.050;14.608;2022-11-20T13:17:09;33.65;;;15.75;;
4565;SDS011;2295;51.050;14.608;2022-11-20T13:19:52;28.80;;;13.00;;
4565;SDS011;2295;51.050;14.608;2022-11-20T13:22:25;32.78;;;13.35;;
4565;SDS011;2295;51.050;14.608;2022-11-20T13:25:23;37.30;;;19.27;;
4565;SDS011;2295;51.050;14.608;2022-11-20T13:27:56;33.47;;;13.50;;
4565;SDS011;2295;51.050;14.608;2022-11-20T13:30:27;33.28;;;13.15;;
4565;SDS011;2295;51.050;14.608;2022-11-20T13:32:57;30.42;;;12.73;;
4565;SDS011;2295;51.050;14.608;2022-11-20T13:35:54;31.00;;;14.30;;
4565;SDS011;2295;51.050;14.608;2022-11-20T13:38:23;31.02;;;12.60;;
4565;SDS011;2295;51.050;14.608;2022-11-20T13:41:02;35.25;;;15.63;;
4565;SDS011;2295;51.050;14.608;2022-11-20T13:43:58;33.67;;;14.18;;
4565;SDS011;2295;51.050;14.608;2022-11-20T13:46:45;39.55;;;15.93;;
4565;SDS011;2295;51.050;14.608;2022-11-20T13:49:17;36.08;;;14.68;;
4565;SDS011;2295;51.050;14.608;2022-11-20T13:51:50;54.70;;;27.67;;
4565;SDS011;2295;51.050;14.608;2022-11-20T14:00:33;31.70;;;14.52;;
4565;SDS011;2295;51.050;14.608;2022-11-20T14:03:14;30.38;;;15.02;;
4565;SDS011;2295;51.050;14.608;2022-11-20T14:06:11;36.55;;;16.63;;
4565;SDS011;2295;51.050;14.608;2022-11-20T14:08:42;31.98;;;14.15;;
4565;SDS011;2295;51.050;14.608;2022-11-20T14:11:20;32.67;;;14.77;;
4565;SDS011;2295;51.050;14.608;2022-11-20T14:13:54;35.00;;;15.55;;
4565;SDS011;2295;51.050;14.608;2022-11-20T14:16:28;33.78;;;19.02;;
4565;SDS011;2295;51.050;14.608;2022-11-20T14:19:16;36.67;;;16.60;;
4565;SDS011;2295;51.050;14.608;2022-11-20T14:22:09;34.50;;;15.50;;
4565;SDS011;2295;51.050;14.608;2022-11-20T14:24:46;40.75;;;15.65;;
4565;SDS011;2295;51.050;14.608;2022-11-20T14:27:16;35.90;;;15.27;;
4565;SDS011;2295;51.050;14.608;2022-11-20T14:29:49;33.63;;;15.50;;
4565;SDS011;2295;51.050;14.608;2022-11-20T14:32:20;35.17;;;16.20;;
4565;SDS011;2295;51.050;14.608;2022-11-20T14:34:54;69.55;;;31.40;;
4565;SDS011;2295;51.050;14.608;2022-11-20T14:37:29;84.50;;;34.13;;
4565;SDS011;2295;51.050;14.608;2022-11-20T14:40:05;49.17;;;20.88;;
4565;SDS011;2295;51.050;14.608;2022-11-20T14:42:52;43.58;;;19.45;;
4565;SDS011;2295;51.050;14.608;2022-11-20T14:45:34;47.00;;;21.35;;
4565;SDS011;2295;51.050;14.608;2022-11-20T14:48:05;43.67;;;19.15;;
4565;SDS011;2295;51.050;14.608;2022-11-20T14:50:37;42.92;;;17.33;;
4565;SDS011;2295;51.050;14.608;2022-11-20T14:53:09;44.42;;;19.80;;
4565;SDS011;2295;51.050;14.608;2022-11-20T14:55:38;51.22;;;21.33;;
4565;SDS011;2295;51.050;14.608;2022-11-20T14:58:25;45.92;;;20.92;;
4565;SDS011;2295;51.050;14.608;2022-11-20T15:01:01;49.72;;;21.45;;
4565;SDS011;2295;51.050;14.608;2022-11-20T15:03:33;47.90;;;21.00;;
4565;SDS011;2295;51.050;14.608;2022-11-20T15:06:11;47.22;;;19.90;;
4565;SDS011;2295;51.050;14.608;2022-11-20T15:08:49;46.88;;;20.75;;
4565;SDS011;2295;51.050;14.608;2022-11-20T15:11:18;51.45;;;21.98;;
4565;SDS011;2295;51.050;14.608;2022-11-20T15:13:56;50.00;;;19.13;;
4565;SDS011;2295;51.050;14.608;2022-11-20T15:16:25;55.30;;;23.05;;
4565;SDS011;2295;51.050;14.608;2022-11-20T15:18:58;52.00;;;24.45;;
4565;SDS011;2295;51.050;14.608;2022-11-20T15:21:29;56.90;;;22.50;;
4565;SDS011;2295;51.050;14.608;2022-11-20T15:23:58;49.03;;;21.10;;
4565;SDS011;2295;51.050;14.608;2022-11-20T15:26:29;51.92;;;21.92;;
4565;SDS011;2295;51.050;14.608;2022-11-20T15:29:00;55.70;;;21.55;;
4565;SDS011;2295;51.050;14.608;2022-11-20T15:31:29;53.17;;;19.83;;
4565;SDS011;2295;51.050;14.608;2022-11-20T15:34:01;56.63;;;21.77;;
4565;SDS011;2295;51.050;14.608;2022-11-20T15:36:33;52.97;;;20.85;;
4565;SDS011;2295;51.050;14.608;2022-11-20T15:39:01;58.60;;;23.50;;
4565;SDS011;2295;51.050;14.608;2022-11-20T15:41:36;53.30;;;22.95;;